Have a Safe July 4th! 

Flight Track Log - Related Links

Times and Time Zones

All times are in EDT time to prevent confusion due to time zone crossing. See the UAL4236 flight status page for this flight to view local times or setup timezone preferences in your user account.

Time Position Orientation Groundspeed Altitude Reporting Facility
EDT Latitude Longitude Course Direction KTS MPH feet Rate Location/Type
Mon 09:55:21 AM 29.9617 -95.3436 276° West 160 184 700  Level Houston Center
Mon 09:56:15 AM 29.9289 -95.3742 219° Southwest 207 238 2,400 1,603 Climbing Houston Center
Mon 09:57:17 AM 29.8969 -95.4381 240° Southwest 241 277 3,800 1,552 Climbing Houston Center
Mon 09:58:00 AM 30.0211 -95.6900 277° West  Level FlightAware Approximate
Mon 09:58:11 AM 29.8719 -95.4886 240° Southwest 236 272 5,400  Level Houston Center
Mon 09:59:00 AM 30.0341 -95.8094 276° West  Level FlightAware Approximate
Mon 09:59:13 AM 29.8483 -95.5611 249° West 250 288 7,300  Level Houston Center
Mon 10:00:00 AM 30.0441 -95.9292 276° West  Level FlightAware Approximate
Mon 10:00:15 AM 29.8803 -95.6603 290° West 279 321 9,800  Level Houston Center
Mon 10:01:17 AM 29.9122 -95.7458 293° West 290 334 10,600 774 Climbing Houston Center
Mon 10:02:19 AM 29.9503 -95.8450 294° West 334 384 11,400 1,016 Climbing Houston Center
Mon 10:03:21 AM 29.9883 -95.9475 293° West 347 399 12,700 1,200 Climbing Houston Center
Mon 10:04:24 AM 30.0286 -96.0544 294° West 354 407 13,900 1,056 Climbing Houston Center
Mon 10:05:26 AM 30.0686 -96.1592 294° West 359 413 14,900 1,065 Climbing Houston Center
Mon 10:06:28 AM 30.1078 -96.2953 288° West 372 428 16,100 1,161 Climbing Houston Center
Mon 10:07:30 AM 30.1244 -96.4133 279° West 376 433 17,300 1,113 Climbing Houston Center
Mon 10:08:32 AM 30.1411 -96.5239 280° West 376 433 18,400 1,113 Climbing Houston Center
Mon 10:09:34 AM 30.1622 -96.6658 280° West 379 436 19,600 1,016 Climbing Houston Center
Mon 10:10:36 AM 30.1817 -96.7903 280° West 387 445 20,500 919 Climbing Houston Center
Mon 10:11:38 AM 30.1997 -96.9158 279° West 390 449 21,500 912 Climbing Houston Center
Mon 10:12:41 AM 30.2197 -97.0381 281° West 385 443 22,400 912 Climbing Houston Center
Mon 10:13:43 AM 30.2369 -97.1642 279° West 390 449 23,400 774 Climbing Houston Center
Mon 10:14:45 AM 30.2558 -97.2894 280° West 391 450 24,000 290 Climbing Houston Center
Mon 10:15:47 AM 30.2747 -97.4194 280° West 398 458 24,000  Level Houston Center
Mon 10:16:49 AM 30.2936 -97.5561 279° West 415 478 24,000  Level Houston Center
Mon 10:17:51 AM 30.3172 -97.7164 280° West 427 491 24,000  Level Houston Center
Mon 10:18:53 AM 30.3367 -97.8550 279° West 432 497 24,000  Level Houston Center
Mon 10:19:55 AM 30.3550 -97.9917 279° West 426 490 24,000  Level Houston Center
Mon 10:20:58 AM 30.3806 -98.1289 282° West 429 494 24,000  Level Houston Center
Mon 10:22:00 AM 30.4061 -98.2642 282° West 426 490 24,000  Level Houston Center
Mon 10:23:02 AM 30.4339 -98.4006 283° West 428 493 24,000  Level Houston Center
Mon 10:24:04 AM 30.4583 -98.5356 282° West 426 490 24,000  Level Houston Center
Mon 10:25:06 AM 30.4850 -98.6694 283° West 423 487 24,000  Level Houston Center
Mon 10:26:08 AM 30.5142 -98.8272 282° West 426 490 24,000  Level Houston Center
Mon 10:27:10 AM 30.5403 -98.9619 283° West 425 489 24,000  Level Houston Center
Mon 10:28:13 AM 30.5667 -99.0961 283° West 423 487 24,000  Level Houston Center
Mon 10:29:15 AM 30.5922 -99.2314 282° West 424 488 24,000  Level Houston Center
Mon 10:30:17 AM 30.6161 -99.3639 282° West 423 487 24,000  Level Houston Center
Mon 10:31:19 AM 30.6417 -99.4961 283° West 422 486 24,000  Level Houston Center
Mon 10:32:21 AM 30.6708 -99.6575 282° West 426 490 24,000  Level Houston Center
Mon 10:33:23 AM 30.6939 -99.7878 282° West 413 475 24,000  Level Houston Center
Mon 10:34:25 AM 30.7183 -99.9214 282° West 427 491 24,000  Level Houston Center
Mon 10:35:27 AM 30.7425 -100.0569 282° West 429 494 24,000  Level Houston Center
Mon 10:36:30 AM 30.7672 -100.1897 282° West 423 487 24,000  Level Houston Center
Mon 10:37:32 AM 30.7956 -100.3550 281° West 436 502 24,000  Level Houston Center
Mon 10:38:34 AM 30.8219 -100.4883 283° West 426 490 24,000  Level Houston Center
Mon 10:39:36 AM 30.8453 -100.6272 281° West 435 501 24,000  Level Houston Center
Mon 10:40:38 AM 30.8689 -100.7681 281° West 443 510 24,000  Level Houston Center
Mon 10:41:40 AM 30.8931 -100.9050 282° West 437 503 24,000  Level Houston Center
Mon 10:42:42 AM 30.9164 -101.0414 281° West 433 498 24,000  Level Houston Center
Mon 10:43:44 AM 30.9450 -101.2056 282° West 432 497 24,000  Level Houston Center
Mon 10:44:46 AM 30.9681 -101.3406 281° West 430 495 24,000  Level Houston Center
Mon 10:45:48 AM 30.9914 -101.4750 281° West 431 496 24,000  Level Albuquerque Center
Mon 10:46:50 AM 31.0128 -101.6106 280° West 428 493 24,000  Level Albuquerque Center
Mon 10:47:52 AM 31.0358 -101.7472 281° West 429 494 24,000  Level Albuquerque Center
Mon 10:48:53 AM 31.0619 -101.9097 281° West 425 489 24,000  Level Albuquerque Center
Mon 10:49:55 AM 31.0842 -102.0461 281° West 425 489 24,000  Level Albuquerque Center
Mon 10:50:57 AM 31.1064 -102.1828 281° West 425 489 24,000  Level Albuquerque Center
Mon 10:51:59 AM 31.1294 -102.3239 281° West 429 494 24,000  Level Albuquerque Center
Mon 10:53:01 AM 31.1517 -102.4636 281° West 432 497 24,000  Level Albuquerque Center
Mon 10:54:03 AM 31.1722 -102.6000 280° West 430 495 24,000  Level Albuquerque Center
Mon 10:55:04 AM 31.1933 -102.7358 280° West 427 491 24,000  Level Albuquerque Center
Mon 10:56:06 AM 31.2150 -102.8728 281° West 427 491 24,000  Level Albuquerque Center
Mon 10:57:08 AM 31.2369 -103.0081 281° West 426 490 24,000  Level Albuquerque Center
Mon 10:58:10 AM 31.2578 -103.1442 280° West 426 490 24,000  Level Albuquerque Center
Mon 10:59:12 AM 31.2814 -103.3094 280° West 429 494 24,000  Level Albuquerque Center
Mon 11:00:14 AM 31.3039 -103.4467 281° West 428 493 24,000  Level Albuquerque Center
Mon 11:01:16 AM 31.3233 -103.5822 280° West 425 489 24,000  Level Albuquerque Center
Mon 11:02:17 AM 31.3442 -103.7186 280° West 426 490 24,000  Level Albuquerque Center
Mon 11:03:19 AM 31.3647 -103.8583 280° West 425 489 24,000  Level Albuquerque Center
Mon 11:04:21 AM 31.3856 -103.9928 280° West 423 487 24,000  Level Albuquerque Center
Mon 11:05:23 AM 31.4061 -104.1250 280° West 416 479 24,000  Level Albuquerque Center
Mon 11:06:25 AM 31.4289 -104.2836 280° West 414 476 24,000  Level Albuquerque Center
Mon 11:07:27 AM 31.4472 -104.4183 279° West 419 482 24,000  Level Albuquerque Center
Mon 11:08:29 AM 31.4625 -104.5519 278° West 417 480 24,000  Level Albuquerque Center
Mon 11:09:31 AM 31.4769 -104.6867 277° West 419 482 24,000  Level Albuquerque Center
Mon 11:10:33 AM 31.4928 -104.8225 278° West 421 484 24,000  Level Albuquerque Center
Mon 11:11:35 AM 31.5083 -104.9822 277° West 419 482 24,000 -290 Level Albuquerque Center
Mon 11:12:37 AM 31.5217 -105.1178 277° West 419 482 23,400 -1,210 Descending Albuquerque Center
Mon 11:13:39 AM 31.5353 -105.2506 277° West 418 481 21,500 -2,014 Descending Albuquerque Center
Mon 11:14:57 AM 31.5497 -105.4325 275° West 404 465 18,700 -2,191 Descending Albuquerque Center
Mon 11:15:34 AM 31.5575 -105.5081 277° West 387 445 17,300 -2,176 Descending Albuquerque Center
Mon 11:16:28 AM 31.5681 -105.6203 276° West 367 422 15,400 -1,775 Descending Albuquerque Center
Mon 11:16:45 AM 31.5706 -105.6269 294° West 374 430 15,200 -1,574 Descending Albuquerque Center
Mon 11:17:29 AM 31.5817 -105.7389 277° West 369 425 13,800 -1,742 Descending Albuquerque Center
Mon 11:17:47 AM 31.5844 -105.7703 276° West 371 427 13,400 -1,500 Descending Albuquerque Center
Mon 11:18:29 AM 31.6133 -105.8508 293° West 372 428 12,300 -1,548 Descending Albuquerque Center
Mon 11:18:49 AM 31.6272 -105.8778 301° West 365 420 11,800 -1,279 Descending Albuquerque Center
Mon 11:19:30 AM 31.6583 -105.9442 299° West 314 361 11,000 -1,258 Descending Albuquerque Center
Mon 11:19:51 AM 31.6700 -105.9661 302° West 308 354 10,500 -1,855 Descending Albuquerque Center
Mon 11:20:25 AM 31.6950 -106.0150 301° West 261 300 9,300 -1,645 Descending Albuquerque Center
Mon 11:20:53 AM 31.7078 -106.0403 301° West 268 308 8,800 -1,083 Descending Albuquerque Center
Mon 11:21:37 AM 31.7361 -106.0994 299° West 226 260 8,000 -774 Descending Albuquerque Center
Mon 11:21:55 AM 31.7386 -106.1072 291° West 235 270 8,000 -1,082 Level Albuquerque Center
Mon 11:22:38 AM 31.7572 -106.1667 290° West 209 241 6,900 -1,258 Descending Albuquerque Center
Mon 11:22:57 AM 31.7592 -106.1728 291° West 216 249 6,700 -984 Descending Albuquerque Center
Mon 11:23:39 AM 31.7775 -106.2317 290° West 211 243 5,900 -968 Descending Albuquerque Center
Mon 11:23:59 AM 31.7844 -106.2497 294° West 212 244 5,700 -600 Descending Albuquerque Center

Login

Don't have an account? Register now (free) for customized features, flight alerts, and more!